Time;durP1;ratioP1;P1;durP2;ratioP2;P2;SDS_P1;SDS_P2;PMS_P1;PMS_P2;Temp;Humidity;BMP_temperature;BMP_pressure;BME280_temperature;BME280_humidity;BME280_pressure;Samples;Min_cycle;Max_cycle;Signal;HPM_P1;HPM_P2
2022/12/28 00:03:38;;;;;;;4.88;0.88;;;;;;;;;;10491025;28;20302;-80
2022/12/28 00:08:39;;;;;;;0.88;0.88;;;;;;;;;;10489783;28;20213;-78
2022/12/28 00:13:40;;;;;;;2.60;0.88;;;;;;;;;;10492481;28;20209;-78
2022/12/28 00:18:41;;;;;;;1.25;0.93;;;;;;;;;;10479839;28;20599;-80
2022/12/28 00:23:42;;;;;;;0.65;0.65;;;;;;;;;;10488655;28;20217;-80
2022/12/28 00:28:44;;;;;;;4.88;1.20;;;;;;;;;;10502372;28;20304;-80
2022/12/28 00:33:45;;;;;;;1.00;1.00;;;;;;;;;;10498288;28;20225;-79
2022/12/28 00:38:46;;;;;;;1.30;0.82;;;;;;;;;;10487072;28;20581;-80
2022/12/28 00:43:48;;;;;;;7.43;0.95;;;;;;;;;;10488307;28;20230;-79
2022/12/28 00:48:49;;;;;;;4.32;0.82;;;;;;;;;;10490567;28;20875;-79
2022/12/28 00:53:50;;;;;;;3.80;0.90;;;;;;;;;;10501676;28;20249;-80
2022/12/28 00:58:56;;;;;;;0.85;0.77;;;;;;;;;;10487063;28;20637;-80
2022/12/28 01:03:57;;;;;;;2.53;0.77;;;;;;;;;;10472258;28;20222;-81
2022/12/28 01:08:59;;;;;;;3.00;1.05;;;;;;;;;;10487224;28;20217;-80
2022/12/28 01:14:02;;;;;;;6.53;0.80;;;;;;;;;;10485894;28;20210;-81
2022/12/28 01:19:05;;;;;;;3.03;0.80;;;;;;;;;;10478586;28;20638;-79
2022/12/28 01:24:07;;;;;;;1.98;1.08;;;;;;;;;;10480362;28;20639;-81
2022/12/28 01:29:08;;;;;;;1.38;0.82;;;;;;;;;;10492260;28;20231;-81
2022/12/28 01:34:09;;;;;;;1.30;1.30;;;;;;;;;;10499353;28;20531;-81
2022/12/28 01:39:10;;;;;;;1.45;1.10;;;;;;;;;;10498597;28;20205;-81
2022/12/28 01:44:12;;;;;;;5.97;1.08;;;;;;;;;;10475508;28;20233;-82
2022/12/28 01:49:16;;;;;;;3.80;0.95;;;;;;;;;;10473830;28;20213;-81
2022/12/28 01:54:18;;;;;;;2.25;0.90;;;;;;;;;;10472861;28;20229;-81
2022/12/28 01:59:24;;;;;;;0.98;0.98;;;;;;;;;;10487354;28;20205;-81
2022/12/28 02:04:25;;;;;;;2.78;1.17;;;;;;;;;;10483098;28;20251;-83
2022/12/28 02:09:31;;;;;;;0.98;0.98;;;;;;;;;;10477694;28;20772;-82
2022/12/28 02:14:32;;;;;;;2.88;1.33;;;;;;;;;;10488825;28;20209;-82
2022/12/28 02:19:46;;;;;;;1.08;1.05;;;;;;;;;;10496729;28;20216;-82
2022/12/28 02:24:59;;;;;;;1.98;1.25;;;;;;;;;;10479086;28;20727;-82
2022/12/28 02:30:07;;;;;;;1.60;1.27;;;;;;;;;;10499817;28;20256;-79
2022/12/28 02:35:19;;;;;;;1.15;0.80;;;;;;;;;;10485455;28;20705;-80
2022/12/28 02:40:27;;;;;;;3.63;1.30;;;;;;;;;;10487908;28;20355;-78
2022/12/28 02:50:57;;;;;;;1.30;1.20;;;;;;;;;;10484960;28;20219;-81
2022/12/28 02:56:11;;;;;;;1.70;1.17;;;;;;;;;;10489466;28;20259;-80
2022/12/28 03:01:33;;;;;;;1.15;1.13;;;;;;;;;;10508243;28;20276;-80
2022/12/28 03:12:25;;;;;;;3.15;1.10;;;;;;;;;;10481209;28;20283;-81
2022/12/28 03:33:33;;;;;;;1.52;1.33;;;;;;;;;;10477126;28;20228;-80
2022/12/28 03:38:41;;;;;;;2.38;1.20;;;;;;;;;;10482520;28;20301;-82
2022/12/28 03:43:49;;;;;;;4.15;1.08;;;;;;;;;;10476451;28;20700;-81
2022/12/28 03:48:52;;;;;;;3.05;1.42;;;;;;;;;;10475077;28;20228;-81
2022/12/28 03:53:53;;;;;;;1.17;1.17;;;;;;;;;;10483766;28;20201;-79
2022/12/28 03:58:57;;;;;;;2.38;0.95;;;;;;;;;;10476332;28;20218;-81
2022/12/28 04:04:05;;;;;;;5.15;1.08;;;;;;;;;;10494658;28;20270;-80
2022/12/28 04:09:07;;;;;;;2.97;0.98;;;;;;;;;;10493635;28;20243;-81
2022/12/28 04:14:12;;;;;;;2.60;1.00;;;;;;;;;;10494597;28;20209;-81
2022/12/28 04:19:17;;;;;;;1.70;0.80;;;;;;;;;;10488227;28;20248;-81
2022/12/28 04:24:20;;;;;;;0.95;0.90;;;;;;;;;;10510428;28;20237;-81
2022/12/28 04:29:23;;;;;;;2.97;0.85;;;;;;;;;;10498363;28;20217;-83
2022/12/28 04:34:31;;;;;;;2.05;1.00;;;;;;;;;;10510529;28;20217;-81
2022/12/28 04:39:38;;;;;;;2.22;1.05;;;;;;;;;;10500155;28;20215;-82
2022/12/28 04:44:40;;;;;;;0.95;0.68;;;;;;;;;;10505834;28;20274;-82
2022/12/28 04:49:41;;;;;;;0.85;0.80;;;;;;;;;;10507293;28;20214;-81
2022/12/28 04:54:42;;;;;;;3.35;0.90;;;;;;;;;;10497365;28;20209;-79
2022/12/28 04:59:43;;;;;;;0.60;0.60;;;;;;;;;;10494170;28;20255;-79
2022/12/28 05:04:44;;;;;;;0.60;0.60;;;;;;;;;;10509641;28;20639;-81
2022/12/28 05:09:45;;;;;;;4.40;0.80;;;;;;;;;;10490640;28;20213;-82
2022/12/28 05:14:46;;;;;;;0.82;0.70;;;;;;;;;;10502831;28;20210;-79
2022/12/28 05:19:47;;;;;;;2.85;1.10;;;;;;;;;;10508332;28;20313;-81
2022/12/28 05:24:48;;;;;;;1.95;0.70;;;;;;;;;;10504726;28;20198;-81
2022/12/28 05:29:49;;;;;;;0.60;0.60;;;;;;;;;;10496870;28;20228;-81
2022/12/28 05:34:50;;;;;;;2.05;0.60;;;;;;;;;;10506142;28;20229;-80
2022/12/28 05:39:51;;;;;;;1.75;0.70;;;;;;;;;;10486972;28;20296;-78
2022/12/28 05:44:52;;;;;;;0.80;0.70;;;;;;;;;;10515287;28;20205;-79
2022/12/28 05:49:53;;;;;;;2.05;0.63;;;;;;;;;;10511259;28;20226;-79
2022/12/28 05:54:54;;;;;;;7.05;0.60;;;;;;;;;;10506856;28;20664;-78
2022/12/28 05:59:55;;;;;;;1.92;0.85;;;;;;;;;;10510801;28;20210;-79
2022/12/28 06:04:56;;;;;;;1.33;0.60;;;;;;;;;;10491995;28;20598;-80
2022/12/28 06:09:57;;;;;;;0.70;0.70;;;;;;;;;;10502585;28;20210;-79
2022/12/28 06:14:58;;;;;;;0.80;0.80;;;;;;;;;;10503938;28;20206;-79
2022/12/28 06:20:00;;;;;;;1.15;1.05;;;;;;;;;;10489177;28;20267;-79
2022/12/28 06:25:01;;;;;;;0.70;0.70;;;;;;;;;;10504649;28;20207;-79
2022/12/28 06:30:02;;;;;;;2.85;1.23;;;;;;;;;;10515884;28;20290;-79
2022/12/28 06:35:03;;;;;;;0.88;0.88;;;;;;;;;;10515620;28;20218;-80
2022/12/28 06:40:04;;;;;;;1.70;0.80;;;;;;;;;;10495413;28;20227;-80
2022/12/28 06:45:05;;;;;;;1.95;0.60;;;;;;;;;;10521944;28;20174;-79
2022/12/28 06:50:07;;;;;;;4.82;0.80;;;;;;;;;;10513327;28;20194;-78
2022/12/28 06:55:08;;;;;;;2.08;0.80;;;;;;;;;;10510389;28;20182;-78
2022/12/28 07:00:09;;;;;;;0.60;0.60;;;;;;;;;;10514291;28;20296;-78
2022/12/28 07:05:11;;;;;;;0.88;0.73;;;;;;;;;;10503315;28;20264;-78
2022/12/28 07:10:12;;;;;;;1.23;0.80;;;;;;;;;;10495410;28;20171;-78
2022/12/28 07:15:13;;;;;;;3.65;0.70;;;;;;;;;;10510339;28;20612;-77
2022/12/28 07:20:14;;;;;;;1.65;1.23;;;;;;;;;;10498881;28;20241;-81
2022/12/28 07:25:15;;;;;;;0.90;0.90;;;;;;;;;;10501974;28;20166;-78
2022/12/28 07:30:17;;;;;;;0.98;0.93;;;;;;;;;;10502649;28;20849;-78
2022/12/28 07:35:18;;;;;;;1.02;0.95;;;;;;;;;;10497812;28;20224;-80
2022/12/28 07:40:19;;;;;;;4.53;1.10;;;;;;;;;;10502109;28;20202;-83
2022/12/28 07:45:20;;;;;;;2.47;1.08;;;;;;;;;;10489639;28;20178;-81
2022/12/28 07:50:21;;;;;;;2.15;1.58;;;;;;;;;;10501388;28;20579;-80
2022/12/28 07:55:23;;;;;;;4.25;1.30;;;;;;;;;;10488524;28;20217;-80
2022/12/28 08:00:25;;;;;;;2.47;1.70;;;;;;;;;;10497465;28;20249;-80
2022/12/28 08:05:26;;;;;;;1.67;1.63;;;;;;;;;;10497970;28;20224;-80
2022/12/28 08:10:27;;;;;;;2.50;1.20;;;;;;;;;;10494484;28;20222;-80
2022/12/28 08:15:28;;;;;;;2.10;1.27;;;;;;;;;;10510100;28;20297;-79
2022/12/28 08:20:30;;;;;;;3.85;1.30;;;;;;;;;;10478655;28;20241;-80
2022/12/28 08:25:31;;;;;;;2.83;1.23;;;;;;;;;;10491777;28;20233;-80
2022/12/28 08:30:32;;;;;;;1.35;1.25;;;;;;;;;;10512265;28;20291;-78
2022/12/28 08:35:34;;;;;;;1.55;1.45;;;;;;;;;;10489871;28;20845;-80
2022/12/28 08:40:35;;;;;;;1.33;1.33;;;;;;;;;;10492997;28;20236;-79
2022/12/28 08:45:36;;;;;;;1.00;0.85;;;;;;;;;;10499446;28;20233;-80
2022/12/28 08:50:37;;;;;;;1.02;0.85;;;;;;;;;;10504007;28;20220;-80
2022/12/28 08:55:38;;;;;;;1.08;1.08;;;;;;;;;;10510921;28;20565;-78
2022/12/28 09:00:39;;;;;;;0.80;0.80;;;;;;;;;;10501465;28;20213;-79
2022/12/28 09:05:40;;;;;;;0.60;0.60;;;;;;;;;;10493928;28;20209;-78
2022/12/28 09:10:41;;;;;;;0.68;0.68;;;;;;;;;;10493189;28;21133;-75
2022/12/28 09:15:42;;;;;;;0.60;0.60;;;;;;;;;;10509468;28;20220;-79
2022/12/28 09:20:43;;;;;;;2.38;0.52;;;;;;;;;;10519258;28;20326;-78
2022/12/28 09:25:44;;;;;;;2.15;0.60;;;;;;;;;;10506311;28;20220;-78
2022/12/28 09:30:45;;;;;;;1.55;0.70;;;;;;;;;;10489309;28;20209;-78
2022/12/28 09:35:46;;;;;;;0.77;0.60;;;;;;;;;;10490919;28;20218;-79
2022/12/28 09:40:47;;;;;;;0.70;0.60;;;;;;;;;;10490924;28;20225;-80
2022/12/28 09:45:48;;;;;;;0.63;0.63;;;;;;;;;;10471816;28;20214;-80
2022/12/28 09:50:50;;;;;;;2.65;0.52;;;;;;;;;;10509040;28;20226;-80
2022/12/28 09:55:54;;;;;;;0.90;0.68;;;;;;;;;;10508824;28;20288;-79
2022/12/28 10:00:56;;;;;;;0.50;0.50;;;;;;;;;;10499482;28;20578;-79
2022/12/28 10:05:57;;;;;;;0.85;0.85;;;;;;;;;;10516724;28;20296;-80
2022/12/28 10:11:00;;;;;;;1.55;1.48;;;;;;;;;;10516201;28;20221;-80
2022/12/28 10:16:03;;;;;;;4.10;1.75;;;;;;;;;;10494166;28;20694;-80
2022/12/28 10:21:04;;;;;;;1.05;0.88;;;;;;;;;;10513874;28;20777;-80
2022/12/28 10:26:05;;;;;;;4.25;2.28;;;;;;;;;;10520504;28;20236;-80
2022/12/28 10:31:08;;;;;;;1.23;1.23;;;;;;;;;;10518073;28;20216;-81
2022/12/28 10:36:13;;;;;;;1.75;0.80;;;;;;;;;;10489257;28;20221;-81
2022/12/28 10:41:15;;;;;;;0.57;0.57;;;;;;;;;;10513370;28;21699;-82
2022/12/28 10:46:17;;;;;;;0.80;0.80;;;;;;;;;;10514176;28;20712;-82
2022/12/28 10:51:20;;;;;;;0.80;0.80;;;;;;;;;;10496862;28;20213;-79
2022/12/28 10:56:26;;;;;;;0.77;0.73;;;;;;;;;;10511772;28;20217;-82
2022/12/28 11:01:29;;;;;;;2.05;0.60;;;;;;;;;;10510113;28;20256;-82
2022/12/28 11:06:50;;;;;;;1.08;1.00;;;;;;;;;;10512519;28;20622;-82
2022/12/28 11:11:52;;;;;;;0.90;0.90;;;;;;;;;;10508250;28;20240;-82
2022/12/28 11:16:53;;;;;;;0.75;0.75;;;;;;;;;;10506623;28;20704;-84
2022/12/28 11:21:54;;;;;;;1.25;0.80;;;;;;;;;;10516340;28;20666;-83
2022/12/28 11:26:56;;;;;;;0.50;0.50;;;;;;;;;;10510417;28;20214;-81
2022/12/28 11:32:02;;;;;;;0.50;0.50;;;;;;;;;;10518178;28;20221;-83
2022/12/28 11:37:03;;;;;;;0.73;0.73;;;;;;;;;;10512329;28;20250;-84
2022/12/28 11:42:04;;;;;;;0.40;0.40;;;;;;;;;;10510193;28;20239;-83
2022/12/28 11:47:15;;;;;;;0.70;0.70;;;;;;;;;;10515399;28;20268;-84
2022/12/28 11:52:16;;;;;;;0.60;0.60;;;;;;;;;;10511416;28;20213;-84
2022/12/28 11:57:35;;;;;;;0.82;0.60;;;;;;;;;;10498709;28;20213;-84
2022/12/28 12:02:36;;;;;;;0.60;0.60;;;;;;;;;;10513946;28;20232;-85
2022/12/28 12:07:45;;;;;;;0.50;0.50;;;;;;;;;;10502214;28;20221;-86
2022/12/28 12:12:48;;;;;;;1.17;1.17;;;;;;;;;;10525383;28;20278;-86
2022/12/28 12:17:52;;;;;;;1.77;0.85;;;;;;;;;;10507092;28;20217;-87
2022/12/28 12:23:00;;;;;;;0.93;0.93;;;;;;;;;;10530925;28;20598;-88
2022/12/28 12:28:06;;;;;;;0.73;0.68;;;;;;;;;;10500199;28;20233;-86
2022/12/28 12:33:23;;;;;;;2.25;0.73;;;;;;;;;;10493934;28;20329;-90
2022/12/28 12:38:38;;;;;;;1.15;0.70;;;;;;;;;;10519350;28;20244;-86
2022/12/28 12:43:46;;;;;;;0.50;0.50;;;;;;;;;;10510958;28;20300;-87
2022/12/28 12:49:06;;;;;;;0.40;0.40;;;;;;;;;;10498045;28;21427;-88
2022/12/28 12:54:27;;;;;;;0.70;0.70;;;;;;;;;;10512117;28;20201;-88
2022/12/28 12:59:37;;;;;;;0.63;0.63;;;;;;;;;;10525544;28;20209;-88
2022/12/28 13:04:41;;;;;;;0.50;0.50;;;;;;;;;;10515152;28;20217;-90
2022/12/28 13:09:43;;;;;;;0.50;0.50;;;;;;;;;;10522962;28;20198;-89
2022/12/28 13:14:48;;;;;;;0.70;0.52;;;;;;;;;;10507497;28;20209;-87
2022/12/28 13:19:49;;;;;;;0.40;0.40;;;;;;;;;;10500479;28;20434;-88
2022/12/28 13:24:50;;;;;;;1.08;1.08;;;;;;;;;;10519785;28;20227;-91
2022/12/28 13:29:52;;;;;;;0.60;0.60;;;;;;;;;;10517894;28;20232;-91
2022/12/28 13:34:53;;;;;;;2.15;0.60;;;;;;;;;;10526427;28;20217;-90
2022/12/28 13:40:30;;;;;;;2.35;0.60;;;;;;;;;;10525914;28;20225;-89
2022/12/28 13:45:31;;;;;;;0.80;0.80;;;;;;;;;;10401095;28;20236;-93
2022/12/28 13:50:33;;;;;;;1.35;1.00;;;;;;;;;;10505890;28;20217;-89
2022/12/28 13:55:45;;;;;;;0.60;0.60;;;;;;;;;;10528902;28;20217;-91
2022/12/28 14:00:47;;;;;;;1.10;0.60;;;;;;;;;;10516719;28;20232;-92
2022/12/28 14:05:49;;;;;;;8.07;4.68;;;;;;;;;;10524785;28;20205;-88
2022/12/28 14:10:51;;;;;;;2.88;2.20;;;;;;;;;;10516254;28;20299;-92
2022/12/28 14:15:53;;;;;;;3.95;2.20;;;;;;;;;;10520803;28;20275;-92
2022/12/28 14:20:56;;;;;;;1.38;1.27;;;;;;;;;;10518900;28;20595;-93
2022/12/28 14:26:01;;;;;;;1.77;1.13;;;;;;;;;;10522426;28;20209;-90
2022/12/28 14:31:03;;;;;;;1.33;0.60;;;;;;;;;;10516873;28;20297;-93
2022/12/28 14:36:05;;;;;;;1.67;1.63;;;;;;;;;;10524056;28;20237;-92
2022/12/28 14:41:07;;;;;;;1.00;1.00;;;;;;;;;;10516074;28;20264;-90
2022/12/28 14:46:28;;;;;;;0.80;0.80;;;;;;;;;;10508208;28;20379;-92
2022/12/28 14:51:30;;;;;;;0.60;0.60;;;;;;;;;;10516241;28;20224;-90
2022/12/28 14:56:33;;;;;;;0.60;0.60;;;;;;;;;;10532966;28;20217;-92
2022/12/28 15:01:41;;;;;;;0.60;0.60;;;;;;;;;;10541356;28;20239;-88
2022/12/28 15:06:42;;;;;;;0.73;0.68;;;;;;;;;;10526138;28;20201;-92
2022/12/28 15:11:46;;;;;;;1.10;0.75;;;;;;;;;;10535117;28;20250;-91
2022/12/28 15:16:47;;;;;;;2.50;0.75;;;;;;;;;;10519056;28;20206;-92
2022/12/28 15:21:48;;;;;;;1.00;0.88;;;;;;;;;;10518688;28;20213;-90
2022/12/28 15:26:49;;;;;;;2.67;1.08;;;;;;;;;;10517733;28;20210;-89
2022/12/28 15:31:50;;;;;;;2.40;0.90;;;;;;;;;;10520364;28;20300;-91
2022/12/28 15:36:51;;;;;;;0.93;0.88;;;;;;;;;;10546157;28;20217;-94
2022/12/28 15:41:52;;;;;;;0.90;0.90;;;;;;;;;;10530598;28;20225;-91
2022/12/28 15:46:53;;;;;;;2.67;0.70;;;;;;;;;;10534323;28;20209;-93
2022/12/28 15:51:54;;;;;;;0.70;0.70;;;;;;;;;;10544732;28;20234;-93
2022/12/28 15:56:56;;;;;;;2.50;1.23;;;;;;;;;;10525740;28;20213;-93
2022/12/28 16:01:57;;;;;;;2.22;1.10;;;;;;;;;;10517195;28;20221;-94
2022/12/28 16:06:58;;;;;;;0.85;0.85;;;;;;;;;;10526683;28;20233;-91
2022/12/28 16:11:59;;;;;;;0.50;0.50;;;;;;;;;;10539442;28;20217;-92
2022/12/28 16:17:01;;;;;;;0.52;0.52;;;;;;;;;;10523894;28;20210;-90
2022/12/28 16:22:02;;;;;;;0.45;0.40;;;;;;;;;;10533566;28;20221;-95
2022/12/28 16:27:05;;;;;;;0.40;0.40;;;;;;;;;;10537662;28;20296;-89
2022/12/28 16:32:06;;;;;;;0.50;0.50;;;;;;;;;;10529040;28;20232;-92
2022/12/28 16:37:08;;;;;;;0.50;0.50;;;;;;;;;;10530406;28;20221;-94
2022/12/28 16:42:10;;;;;;;0.70;0.70;;;;;;;;;;10528457;28;20255;-91
2022/12/28 16:47:11;;;;;;;0.50;0.50;;;;;;;;;;10524569;28;20213;-94
2022/12/28 16:52:12;;;;;;;0.57;0.57;;;;;;;;;;10516587;28;20309;-91
2022/12/28 16:57:13;;;;;;;1.55;0.60;;;;;;;;;;10514563;28;20206;-90
2022/12/28 17:02:14;;;;;;;0.93;0.65;;;;;;;;;;10529923;28;20224;-92
2022/12/28 17:07:15;;;;;;;0.55;0.55;;;;;;;;;;10530216;28;20208;-90
2022/12/28 17:12:16;;;;;;;0.50;0.50;;;;;;;;;;10534317;28;20308;-92
2022/12/28 17:17:17;;;;;;;1.58;0.60;;;;;;;;;;10532669;28;20213;-88
2022/12/28 17:22:18;;;;;;;0.63;0.63;;;;;;;;;;10502470;28;20224;-92
2022/12/28 17:27:19;;;;;;;1.10;0.70;;;;;;;;;;10515465;28;20202;-88
2022/12/28 17:32:20;;;;;;;0.75;0.75;;;;;;;;;;10512745;28;20213;-85
2022/12/28 17:37:21;;;;;;;2.95;0.73;;;;;;;;;;10501966;28;20583;-89
2022/12/28 17:42:22;;;;;;;2.08;0.93;;;;;;;;;;10509081;28;20221;-87
2022/12/28 17:47:24;;;;;;;0.88;0.88;;;;;;;;;;10507476;28;20209;-85
2022/12/28 17:52:25;;;;;;;0.80;0.55;;;;;;;;;;10500606;28;20229;-85
2022/12/28 17:57:26;;;;;;;0.57;0.55;;;;;;;;;;10509127;28;20216;-83
2022/12/28 18:02:27;;;;;;;2.50;0.52;;;;;;;;;;10510228;28;20887;-83
2022/12/28 18:07:28;;;;;;;0.57;0.40;;;;;;;;;;10493063;28;20681;-85
2022/12/28 18:12:29;;;;;;;1.75;0.40;;;;;;;;;;10515997;28;20739;-85
2022/12/28 18:17:30;;;;;;;0.85;0.70;;;;;;;;;;10510102;28;20214;-84
2022/12/28 18:22:32;;;;;;;1.40;0.50;;;;;;;;;;10513443;28;20236;-83
2022/12/28 18:27:35;;;;;;;1.85;0.77;;;;;;;;;;10506238;28;20208;-85
2022/12/28 18:32:36;;;;;;;0.88;0.50;;;;;;;;;;10515611;28;20644;-85
2022/12/28 18:37:37;;;;;;;0.60;0.60;;;;;;;;;;10523878;28;20598;-84
2022/12/28 18:42:38;;;;;;;1.15;0.80;;;;;;;;;;10518603;28;20674;-83
2022/12/28 18:47:39;;;;;;;1.45;0.60;;;;;;;;;;10497181;28;20561;-83
2022/12/28 18:52:40;;;;;;;0.70;0.70;;;;;;;;;;10504629;28;20689;-84
2022/12/28 18:57:41;;;;;;;0.60;0.60;;;;;;;;;;10503873;28;20221;-84
2022/12/28 19:02:42;;;;;;;0.50;0.50;;;;;;;;;;10520922;28;20301;-84
2022/12/28 19:07:43;;;;;;;0.57;0.47;;;;;;;;;;10513147;28;20611;-85
2022/12/28 19:12:44;;;;;;;0.63;0.63;;;;;;;;;;10504758;28;20217;-86
2022/12/28 19:17:45;;;;;;;1.35;0.80;;;;;;;;;;10513247;28;20206;-85
2022/12/28 19:22:46;;;;;;;1.58;0.68;;;;;;;;;;10524004;28;20255;-87
2022/12/28 19:27:48;;;;;;;1.60;0.63;;;;;;;;;;10505638;28;20201;-86
2022/12/28 19:32:49;;;;;;;1.08;0.77;;;;;;;;;;10506607;28;20312;-89
2022/12/28 19:37:50;;;;;;;0.80;0.80;;;;;;;;;;10505508;28;20215;-86
2022/12/28 19:42:51;;;;;;;1.00;1.00;;;;;;;;;;10509898;28;20528;-87
2022/12/28 19:47:52;;;;;;;1.35;1.25;;;;;;;;;;10488467;28;20209;-87
2022/12/28 19:52:53;;;;;;;1.10;1.10;;;;;;;;;;10504678;28;20221;-84
2022/12/28 19:57:55;;;;;;;1.30;1.30;;;;;;;;;;10508261;28;20210;-87
2022/12/28 20:02:56;;;;;;;1.45;1.45;;;;;;;;;;10490870;28;20222;-85
2022/12/28 20:07:57;;;;;;;3.78;1.23;;;;;;;;;;10503416;28;20202;-87
2022/12/28 20:12:58;;;;;;;1.50;1.40;;;;;;;;;;10490081;28;20303;-87
2022/12/28 20:17:59;;;;;;;1.73;1.55;;;;;;;;;;10473174;28;20304;-87
2022/12/28 20:23:00;;;;;;;2.67;1.27;;;;;;;;;;10504993;28;20223;-88
2022/12/28 20:28:01;;;;;;;1.42;0.65;;;;;;;;;;10523899;28;20209;-87
2022/12/28 20:33:02;;;;;;;1.00;0.98;;;;;;;;;;10508415;28;20229;-87
2022/12/28 20:38:03;;;;;;;1.85;1.75;;;;;;;;;;10506480;28;20216;-85
2022/12/28 20:43:23;;;;;;;3.17;1.20;;;;;;;;;;10499387;28;20226;-85
2022/12/28 20:48:24;;;;;;;0.93;0.93;;;;;;;;;;10508520;28;20219;-87
2022/12/28 20:53:26;;;;;;;2.42;1.10;;;;;;;;;;10501656;28;20297;-85
2022/12/28 20:58:27;;;;;;;1.02;1.02;;;;;;;;;;10502265;28;20329;-88
2022/12/28 21:03:28;;;;;;;1.02;1.02;;;;;;;;;;10515144;28;20655;-89
2022/12/28 21:08:29;;;;;;;1.13;1.13;;;;;;;;;;10520191;28;20237;-86
2022/12/28 21:13:30;;;;;;;1.27;1.15;;;;;;;;;;10500571;28;20774;-87
2022/12/28 21:18:31;;;;;;;1.98;1.20;;;;;;;;;;10510970;28;20970;-87
2022/12/28 21:23:32;;;;;;;1.48;1.35;;;;;;;;;;10517551;28;20577;-86
2022/12/28 21:28:34;;;;;;;0.70;0.70;;;;;;;;;;10517865;28;20234;-85
2022/12/28 21:33:35;;;;;;;0.70;0.70;;;;;;;;;;10516711;28;20255;-86
2022/12/28 21:38:37;;;;;;;3.00;1.05;;;;;;;;;;10510565;28;20210;-86
2022/12/28 21:43:39;;;;;;;3.00;1.20;;;;;;;;;;10502990;28;20312;-87
2022/12/28 21:48:40;;;;;;;0.88;0.88;;;;;;;;;;10508064;28;20229;-88
2022/12/28 21:53:41;;;;;;;0.93;0.90;;;;;;;;;;10510781;28;20310;-86
2022/12/28 21:58:44;;;;;;;1.83;0.80;;;;;;;;;;10494444;28;20233;-85
2022/12/28 22:14:24;;;;;;;2.20;1.10;;;;;;;;;;10508781;28;20689;-87
2022/12/28 22:19:25;;;;;;;0.57;0.57;;;;;;;;;;10502886;28;20731;-88
2022/12/28 22:24:26;;;;;;;1.27;0.43;;;;;;;;;;10509939;28;20229;-86
2022/12/28 22:29:27;;;;;;;0.43;0.43;;;;;;;;;;10499296;28;20210;-85
2022/12/28 22:34:30;;;;;;;0.60;0.60;;;;;;;;;;10501394;28;20315;-86
2022/12/28 22:39:31;;;;;;;0.30;0.30;;;;;;;;;;10513224;28;20300;-84
2022/12/28 22:44:32;;;;;;;0.40;0.40;;;;;;;;;;10500781;28;20301;-85
2022/12/28 22:49:33;;;;;;;1.60;0.50;;;;;;;;;;10513424;28;20228;-86
2022/12/28 22:54:34;;;;;;;1.02;0.50;;;;;;;;;;10508029;28;20225;-84
2022/12/28 22:59:35;;;;;;;0.50;0.50;;;;;;;;;;10505136;28;20206;-85
2022/12/28 23:04:36;;;;;;;0.98;0.50;;;;;;;;;;10510216;28;20225;-86
2022/12/28 23:09:37;;;;;;;0.50;0.50;;;;;;;;;;10512177;28;20224;-89
2022/12/28 23:30:41;;;;;;;1.35;0.52;;;;;;;;;;10514778;28;20214;-84
2022/12/28 23:35:42;;;;;;;0.40;0.40;;;;;;;;;;10499529;28;20697;-84
2022/12/28 23:40:43;;;;;;;0.45;0.38;;;;;;;;;;10503968;28;20202;-88
2022/12/28 23:45:44;;;;;;;0.50;0.50;;;;;;;;;;10517725;28;20213;-87
2022/12/28 23:50:45;;;;;;;0.85;0.60;;;;;;;;;;10514043;28;20710;-84
2022/12/28 23:55:46;;;;;;;0.50;0.50;;;;;;;;;;10513672;28;20306;-84
